Time;durP1;ratioP1;P1;durP2;ratioP2;P2;SDS_P1;SDS_P2;PMS_P1;PMS_P2;Temp;Humidity;BMP_temperature;BMP_pressure;BME280_temperature;BME280_humidity;BME280_pressure;Samples;Min_cycle;Max_cycle;Signal;HPM_P1;HPM_P2
2022/06/15 00:01:19;;;;;;;6.28;2.88;;;;;;;15.71;61.81;101738.75;5071038;28;20040;-72
2022/06/15 00:03:45;;;;;;;7.32;3.17;;;;;;;15.63;62.37;101726.28;5072053;28;20032;-71
2022/06/15 00:06:15;;;;;;;5.70;2.60;;;;;;;15.62;61.98;101730.06;5071740;28;20035;-71
2022/06/15 00:08:44;;;;;;;6.35;3.00;;;;;;;15.57;62.10;101735.44;5053911;28;20064;-71
2022/06/15 00:11:13;;;;;;;7.88;3.30;;;;;;;15.54;62.50;101727.72;5071614;28;20040;-71
2022/06/15 00:13:39;;;;;;;9.27;3.00;;;;;;;15.54;62.88;101725.81;5071797;28;20064;-71
2022/06/15 00:16:06;;;;;;;8.32;3.10;;;;;;;15.61;62.81;101728.44;5044047;28;20069;-71
2022/06/15 00:18:33;;;;;;;6.85;3.17;;;;;;;15.55;62.80;101726.63;5051824;28;20037;-71
2022/06/15 00:20:59;;;;;;;9.07;3.40;;;;;;;15.54;62.17;101728.53;5053175;28;20098;-71
2022/06/15 00:23:26;;;;;;;6.72;3.08;;;;;;;15.56;62.05;101725.56;5055351;28;20029;-71
2022/06/15 00:25:52;;;;;;;9.00;3.38;;;;;;;15.42;62.88;101725.78;5055010;28;20380;-71
2022/06/15 00:28:18;;;;;;;7.47;3.53;;;;;;;15.40;63.12;101733.41;5054973;28;20078;-71
2022/06/15 00:30:51;;;;;;;9.32;3.70;;;;;;;15.30;62.97;101724.13;5055464;28;20383;-71
2022/06/15 00:33:21;;;;;;;6.97;3.30;;;;;;;15.32;63.55;101725.53;5054633;28;20032;-71
2022/06/15 00:35:57;;;;;;;9.60;3.47;;;;;;;15.27;62.95;101725.44;5054794;28;20383;-71
2022/06/15 00:38:33;;;;;;;8.45;3.47;;;;;;;15.30;63.50;101722.22;5036975;28;20033;-71
2022/06/15 00:40:59;;;;;;;7.80;3.55;;;;;;;15.21;64.27;101718.19;5036843;28;20021;-71
2022/06/15 00:43:35;;;;;;;9.07;4.00;;;;;;;15.20;63.58;101719.25;5054961;28;20094;-71
2022/06/15 00:46:22;;;;;;;9.52;3.42;;;;;;;15.16;63.55;101712.63;5068964;28;20100;-71
2022/06/15 00:48:52;;;;;;;7.93;3.75;;;;;;;15.14;63.77;101714.75;5067216;28;20044;-71
2022/06/15 00:51:17;;;;;;;12.25;3.55;;;;;;;15.11;64.07;101715.22;5074681;28;20024;-71
2022/06/15 00:53:43;;;;;;;8.82;3.75;;;;;;;15.06;63.97;101710.47;5074412;28;20089;-71
2022/06/15 00:56:09;;;;;;;6.68;3.55;;;;;;;14.93;65.04;101706.06;5074184;28;20048;-71
2022/06/15 00:58:43;;;;;;;11.05;3.92;;;;;;;14.97;64.23;101703.69;5074669;28;20301;-71
2022/06/15 01:01:08;;;;;;;9.43;3.90;;;;;;;14.86;65.04;101711.59;5062125;28;20070;-71
2022/06/15 01:03:34;;;;;;;7.05;3.67;;;;;;;14.88;65.14;101716.81;5094617;28;20468;-71
2022/06/15 01:06:12;;;;;;;9.25;3.95;;;;;;;14.82;65.43;101717.75;5094508;28;20028;-71
2022/06/15 01:08:49;;;;;;;6.03;3.70;;;;;;;14.81;65.17;101707.91;5094757;28;20039;-71
2022/06/15 01:11:45;;;;;;;7.25;4.30;;;;;;;14.81;64.83;101703.31;5094189;28;20038;-71
2022/06/15 01:14:39;;;;;;;11.88;3.67;;;;;;;14.70;65.57;101696.75;5080847;28;20040;-71
2022/06/15 01:17:33;;;;;;;8.93;4.10;;;;;;;14.70;65.25;101702.22;5074232;28;20032;-71
2022/06/15 01:20:17;;;;;;;8.13;3.63;;;;;;;14.66;64.98;101700.16;5056053;28;20032;-71
2022/06/15 01:23:06;;;;;;;6.15;3.70;;;;;;;14.65;65.58;101702.06;5073523;28;20103;-71
2022/06/15 01:26:22;;;;;;;11.43;4.05;;;;;;;14.66;65.19;101695.56;5074175;28;20025;-71
2022/06/15 01:28:53;;;;;;;6.43;3.50;;;;;;;14.52;66.34;101697.59;5056137;28;20541;-71
2022/06/15 01:31:33;;;;;;;10.00;3.88;;;;;;;14.51;66.16;101698.66;5073670;28;20036;-71
2022/06/15 01:34:31;;;;;;;8.02;3.80;;;;;;;14.51;66.06;101692.41;5039131;28;20047;-71
2022/06/15 01:37:13;;;;;;;8.85;3.95;;;;;;;14.43;66.88;101695.41;5054642;28;20036;-71
2022/06/15 01:39:50;;;;;;;;;;;;;;;14.63;64.97;101696.03;5054132;28;20451;-71
2022/06/15 01:42:27;;;;;;;7.53;3.72;;;;;;;14.41;67.25;101692.09;5053662;28;20014;-71
2022/06/15 01:44:58;;;;;;;10.07;4.28;;;;;;;14.31;67.59;101693.50;5053611;28;20029;-71
2022/06/15 01:47:27;;;;;;;7.85;3.80;;;;;;;14.30;67.38;101694.53;5053709;28;20029;-71
2022/06/15 01:49:59;;;;;;;10.25;4.22;;;;;;;14.29;67.49;101692.88;5053717;28;20456;-71
2022/06/15 01:52:31;;;;;;;9.05;4.20;;;;;;;14.22;67.58;101683.97;5072304;28;20438;-71
2022/06/15 01:55:03;;;;;;;;;;;;;;;14.45;65.38;101676.97;5073697;28;20024;-71
2022/06/15 01:57:29;;;;;;;6.63;3.90;;;;;;;14.28;67.59;101683.06;5073308;28;19916;-71
2022/06/15 02:00:05;;;;;;;7.78;4.10;;;;;;;14.21;67.58;101682.31;5073457;28;20090;-71
2022/06/15 02:03:06;;;;;;;8.25;4.25;;;;;;;14.16;67.27;101679.41;5086129;28;20113;-71
2022/06/15 02:05:57;;;;;;;6.65;3.75;;;;;;;14.06;67.74;101674.53;5086518;28;20043;-71
2022/06/15 02:08:34;;;;;;;7.40;3.87;;;;;;;14.11;67.94;101676.56;5055357;28;20039;-71
2022/06/15 02:11:08;;;;;;;11.18;4.50;;;;;;;14.07;68.37;101676.19;5073031;28;20031;-71
2022/06/15 02:13:57;;;;;;;9.43;4.22;;;;;;;14.12;68.34;101675.50;5073253;28;20038;-71
2022/06/15 02:16:33;;;;;;;6.75;3.95;;;;;;;14.09;68.30;101675.97;5072938;28;20028;-71
2022/06/15 02:19:03;;;;;;;7.68;3.83;;;;;;;14.05;68.27;101670.13;5073149;28;20048;-71
2022/06/15 02:21:29;;;;;;;10.05;3.95;;;;;;;14.00;68.47;101665.38;5057357;28;20037;-71
2022/06/15 02:23:58;;;;;;;6.15;3.88;;;;;;;13.98;68.97;101667.50;5053036;28;20548;-71
2022/06/15 02:26:32;;;;;;;7.47;3.80;;;;;;;13.95;69.16;101664.41;5052775;28;20040;-71
2022/06/15 02:29:04;;;;;;;6.53;3.88;;;;;;;13.98;68.78;101662.06;5053226;28;20364;-71
2022/06/15 02:31:30;;;;;;;8.50;4.07;;;;;;;13.91;69.35;101669.47;5052913;28;20059;-71
2022/06/15 02:33:56;;;;;;;13.07;4.88;;;;;;;13.94;69.37;101655.41;5052928;28;20029;-71
2022/06/15 02:36:23;;;;;;;6.60;3.72;;;;;;;13.89;69.25;101660.72;5068925;28;20419;-71
2022/06/15 02:38:51;;;;;;;10.93;4.20;;;;;;;13.85;69.41;101656.78;5072742;28;20115;-71
2022/06/15 02:41:19;;;;;;;7.68;3.80;;;;;;;13.86;69.46;101658.44;5072280;28;20024;-71
2022/06/15 02:43:47;;;;;;;8.93;4.35;;;;;;;13.85;69.50;101662.22;5054315;28;20028;-71
2022/06/15 02:46:15;;;;;;;7.32;4.03;;;;;;;13.75;70.39;101654.59;5072568;28;20031;-71
2022/06/15 02:48:41;;;;;;;8.57;4.35;;;;;;;13.68;70.79;101651.13;5072823;28;20127;-71
2022/06/15 02:51:24;;;;;;;8.75;4.00;;;;;;;13.68;70.86;101642.09;5055473;28;20111;-70
2022/06/15 02:53:52;;;;;;;7.40;4.13;;;;;;;13.69;71.56;101650.03;5052552;28;20029;-71
2022/06/15 02:56:19;;;;;;;8.40;4.22;;;;;;;13.61;72.19;101650.34;5052021;28;20053;-71
2022/06/15 02:58:48;;;;;;;7.10;3.90;;;;;;;13.61;72.52;101642.19;5052248;28;20547;-71
2022/06/15 03:01:14;;;;;;;9.45;4.30;;;;;;;13.56;72.13;101640.16;5059386;28;20493;-71
2022/06/15 03:03:40;;;;;;;10.00;4.00;;;;;;;13.54;72.64;101645.00;5074649;28;20114;-71
2022/06/15 03:06:17;;;;;;;10.35;4.45;;;;;;;13.59;72.24;101647.84;5072446;28;20119;-71
2022/06/15 03:08:43;;;;;;;7.05;4.03;;;;;;;13.63;72.57;101649.06;5072564;28;20040;-71
2022/06/15 03:11:09;;;;;;;5.95;4.03;;;;;;;13.54;72.65;101649.59;5072198;28;20028;-71
2022/06/15 03:13:34;;;;;;;8.65;4.72;;;;;;;13.52;74.00;101652.53;5071064;28;20052;-71
2022/06/15 03:16:15;;;;;;;11.38;4.40;;;;;;;13.55;73.15;101646.63;5067714;28;20036;-70
2022/06/15 03:18:54;;;;;;;7.53;4.38;;;;;;;13.50;72.93;101642.91;5068581;28;20043;-71
2022/06/15 03:21:20;;;;;;;8.10;4.28;;;;;;;13.51;73.36;101644.59;5052044;28;20053;-71
2022/06/15 03:23:45;;;;;;;12.23;4.45;;;;;;;13.51;73.50;101645.41;5052739;28;20087;-71
2022/06/15 03:26:11;;;;;;;10.40;4.30;;;;;;;13.51;73.20;101645.41;5066192;28;20021;-71
2022/06/15 03:28:36;;;;;;;10.18;4.22;;;;;;;13.51;73.61;101644.59;5035238;28;20094;-71
2022/06/15 03:31:03;;;;;;;7.90;3.80;;;;;;;13.56;72.88;101645.59;5067354;28;20048;-71
2022/06/15 03:33:28;;;;;;;8.00;4.55;;;;;;;13.45;74.25;101652.59;5051815;28;20025;-71
2022/06/15 03:35:53;;;;;;;12.70;4.53;;;;;;;13.50;73.11;101648.38;5035720;28;20525;-70
2022/06/15 03:38:19;;;;;;;7.80;4.45;;;;;;;13.50;73.26;101653.81;5052598;28;20021;-70
2022/06/15 03:40:46;;;;;;;8.88;3.92;;;;;;;13.47;73.52;101664.09;5051636;28;20056;-71
2022/06/15 03:43:13;;;;;;;6.72;4.28;;;;;;;13.46;73.39;101658.88;5071283;28;20212;-76
2022/06/15 03:45:38;;;;;;;6.43;4.30;;;;;;;13.38;73.81;101656.44;5072198;28;20028;-70
2022/06/15 03:48:04;;;;;;;9.73;4.40;;;;;;;13.35;74.50;101659.63;5071845;28;20037;-71
2022/06/15 03:50:32;;;;;;;12.10;5.20;;;;;;;13.33;74.18;101665.25;5052031;28;20138;-68
2022/06/15 03:52:59;;;;;;;10.27;4.88;;;;;;;13.27;74.60;101664.25;5051952;28;20029;-76
2022/06/15 03:55:25;;;;;;;9.48;4.60;;;;;;;13.34;74.57;101666.09;5065659;28;20043;-76
2022/06/15 03:57:50;;;;;;;16.58;5.00;;;;;;;13.31;74.50;101661.91;5037400;28;20418;-71
2022/06/15 04:00:19;;;;;;;10.52;4.55;;;;;;;13.37;74.94;101658.31;5054249;28;20029;-70
2022/06/15 04:02:45;;;;;;;9.60;4.50;;;;;;;13.32;74.96;101660.03;5088342;28;20048;-71
2022/06/15 04:05:40;;;;;;;9.02;4.57;;;;;;;13.33;74.32;101659.81;5074885;28;20044;-70
2022/06/15 04:10:50;;;;;;;13.88;4.50;;;;;;;13.32;74.71;101658.13;5075637;28;20150;-70
2022/06/15 04:13:16;;;;;;;9.10;4.78;;;;;;;13.36;74.55;101664.84;5075335;28;20233;-71
2022/06/15 04:15:43;;;;;;;10.10;5.65;;;;;;;13.48;73.97;101659.47;5075561;28;20107;-70
2022/06/15 04:18:08;;;;;;;9.63;5.20;;;;;;;13.54;73.95;101664.03;5056493;28;20024;-71
2022/06/15 04:20:33;;;;;;;10.82;4.97;;;;;;;13.54;73.89;101666.75;5075503;28;20025;-70
2022/06/15 04:23:08;;;;;;;11.18;5.05;;;;;;;13.55;73.70;101659.41;5075399;28;20028;-70
2022/06/15 04:25:45;;;;;;;10.13;4.43;;;;;;;13.59;73.46;101658.72;5075270;28;20153;-70
2022/06/15 04:28:12;;;;;;;8.40;4.35;;;;;;;13.63;73.24;101659.09;5075048;28;20032;-71
2022/06/15 04:30:38;;;;;;;15.20;5.00;;;;;;;13.65;73.39;101659.72;5075095;28;20060;-70
2022/06/15 04:33:04;;;;;;;12.82;4.75;;;;;;;13.68;73.12;101662.00;5074498;28;20136;-70
2022/06/15 04:35:30;;;;;;;12.60;4.60;;;;;;;13.70;73.21;101664.50;5074875;28;20033;-70
2022/06/15 04:37:55;;;;;;;10.00;4.57;;;;;;;13.72;72.70;101652.31;5075017;28;20033;-70
2022/06/15 04:40:21;;;;;;;10.63;4.78;;;;;;;13.73;73.32;101653.16;5074856;28;20028;-70
2022/06/15 04:42:46;;;;;;;13.88;4.90;;;;;;;13.75;73.00;101656.47;5075004;28;20149;-71
2022/06/15 04:45:13;;;;;;;12.13;4.80;;;;;;;13.73;73.39;101653.16;5074693;28;20024;-70
2022/06/15 04:47:39;;;;;;;12.18;4.85;;;;;;;13.86;72.97;101658.44;5069863;28;20029;-70
2022/06/15 04:50:06;;;;;;;11.77;4.93;;;;;;;13.91;72.88;101665.94;5054812;28;20024;-71
2022/06/15 04:52:32;;;;;;;13.85;5.20;;;;;;;13.95;72.62;101669.84;5054507;28;20024;-71
2022/06/15 04:54:57;;;;;;;11.80;4.75;;;;;;;13.95;72.72;101665.25;5054715;28;20094;-70
2022/06/15 04:57:22;;;;;;;11.40;4.90;;;;;;;13.95;72.53;101669.84;5054427;28;20056;-71
2022/06/15 04:59:47;;;;;;;11.07;4.85;;;;;;;14.00;72.25;101668.09;5054636;28;20375;-71
2022/06/15 05:02:13;;;;;;;10.55;4.75;;;;;;;14.07;71.82;101669.91;5074005;28;20115;-72
2022/06/15 05:04:38;;;;;;;9.70;4.82;;;;;;;14.04;72.31;101660.34;5073944;28;20029;-70
2022/06/15 05:07:04;;;;;;;8.65;4.90;;;;;;;14.11;71.96;101663.78;5074180;28;20119;-71
2022/06/15 05:09:29;;;;;;;11.73;5.75;;;;;;;14.11;71.75;101663.78;5074391;28;20036;-70
2022/06/15 05:11:54;;;;;;;11.63;4.82;;;;;;;14.18;72.52;101669.16;5074507;28;20440;-71
2022/06/15 05:14:20;;;;;;;14.85;5.82;;;;;;;14.27;71.78;101669.69;5056991;28;20037;-71
2022/06/15 05:16:46;;;;;;;10.75;5.13;;;;;;;14.33;71.73;101664.13;5054281;28;20033;-71
2022/06/15 05:19:11;;;;;;;8.52;5.07;;;;;;;14.35;71.76;101667.44;5054138;28;20048;-71
2022/06/15 05:21:42;;;;;;;10.98;5.30;;;;;;;14.44;71.33;101664.41;5054219;28;20387;-71
2022/06/15 05:24:08;;;;;;;10.67;5.57;;;;;;;14.41;70.91;101664.88;5054075;28;20111;-71
2022/06/15 05:26:33;;;;;;;12.98;5.15;;;;;;;14.45;72.28;101671.53;5053974;28;20437;-70
2022/06/15 05:28:58;;;;;;;9.68;5.50;;;;;;;14.46;71.78;101668.56;5069723;28;20032;-71
2022/06/15 05:31:24;;;;;;;15.38;5.32;;;;;;;14.54;71.77;101664.69;5073840;28;20028;-73
2022/06/15 05:33:53;;;;;;;13.13;5.38;;;;;;;14.61;71.36;101660.00;5074035;28;20036;-71
2022/06/15 05:36:21;;;;;;;15.10;6.07;;;;;;;14.73;71.96;101676.38;5055813;28;20035;-71
2022/06/15 05:38:46;;;;;;;12.10;5.70;;;;;;;14.79;71.80;101666.44;5074134;28;20036;-70
2022/06/15 05:41:12;;;;;;;15.63;5.82;;;;;;;14.85;71.11;101666.31;5073927;28;20025;-70
2022/06/15 05:43:41;;;;;;;17.92;6.45;;;;;;;14.95;71.77;101675.84;5058859;28;20368;-70
2022/06/15 05:46:22;;;;;;;12.18;6.03;;;;;;;15.04;70.40;101675.25;5053793;28;20024;-70
2022/06/15 05:48:47;;;;;;;9.98;6.07;;;;;;;15.06;70.12;101673.13;5054055;28;20422;-70
2022/06/15 05:51:13;;;;;;;12.60;5.70;;;;;;;15.13;69.58;101678.47;5053980;28;20028;-71
2022/06/15 05:53:38;;;;;;;17.85;6.03;;;;;;;15.13;69.08;101678.47;5053443;28;20033;-71
2022/06/15 05:56:03;;;;;;;13.25;5.80;;;;;;;15.16;68.80;101678.00;5053508;28;20090;-70
2022/06/15 05:58:29;;;;;;;11.50;6.53;;;;;;;15.21;68.88;101677.31;5050478;28;20049;-70
2022/06/15 06:00:54;;;;;;;13.30;7.00;;;;;;;15.27;69.73;101668.16;5072678;28;20028;-70
2022/06/15 06:03:19;;;;;;;17.45;6.38;;;;;;;15.31;69.48;101677.56;5093481;28;20488;-71
2022/06/15 06:05:45;;;;;;;12.70;6.03;;;;;;;15.36;69.24;101669.47;5076333;28;20039;-70
2022/06/15 06:08:10;;;;;;;8.82;5.85;;;;;;;15.45;69.03;101671.88;5073342;28;20499;-70
2022/06/15 06:10:35;;;;;;;11.73;6.03;;;;;;;15.50;68.60;101674.69;5073036;28;20108;-70
2022/06/15 06:13:01;;;;;;;12.63;6.00;;;;;;;15.52;69.58;101681.59;5073199;28;20028;-71
2022/06/15 06:15:26;;;;;;;14.80;5.88;;;;;;;15.54;68.67;101665.78;5072966;28;20166;-70
2022/06/15 06:17:52;;;;;;;12.70;6.20;;;;;;;15.60;68.52;101675.75;5072455;28;20479;-71
2022/06/15 06:20:17;;;;;;;14.68;6.57;;;;;;;15.70;68.82;101677.88;5058646;28;20025;-70
2022/06/15 06:22:42;;;;;;;13.85;5.78;;;;;;;15.73;68.58;101680.13;5053129;28;20582;-70
2022/06/15 06:25:08;;;;;;;10.75;5.90;;;;;;;15.79;68.33;101663.91;5053060;28;20040;-70
2022/06/15 06:27:34;;;;;;;13.40;6.10;;;;;;;15.90;68.81;101668.53;5066857;28;20039;-71
2022/06/15 06:30:00;;;;;;;11.35;5.85;;;;;;;16.04;68.71;101672.63;5072984;28;20111;-70
2022/06/15 06:32:25;;;;;;;9.90;5.25;;;;;;;16.09;68.36;101674.63;5054737;28;20222;-70
2022/06/15 06:34:51;;;;;;;15.45;5.78;;;;;;;16.18;67.73;101680.53;5072633;28;20039;-70
2022/06/15 06:37:16;;;;;;;9.88;6.07;;;;;;;16.22;67.02;101670.81;5054582;28;20044;-71
2022/06/15 06:39:42;;;;;;;12.32;6.00;;;;;;;16.30;67.04;101687.63;5072840;28;20044;-70
2022/06/15 06:42:10;;;;;;;14.18;6.03;;;;;;;16.35;66.78;101680.59;5059150;28;20058;-70
2022/06/15 06:44:36;;;;;;;10.10;5.90;;;;;;;16.40;66.56;101684.25;5052519;28;20043;-71
2022/06/15 06:47:01;;;;;;;12.38;5.72;;;;;;;16.41;65.95;101687.81;5052742;28;20037;-70
2022/06/15 06:49:29;;;;;;;12.57;5.50;;;;;;;16.43;65.86;101686.50;5052475;28;20431;-71
2022/06/15 06:51:54;;;;;;;9.75;5.75;;;;;;;16.54;66.73;101681.25;5052619;28;20044;-71
2022/06/15 06:54:21;;;;;;;8.18;5.18;;;;;;;16.62;66.07;101684.41;5052291;28;20055;-71
2022/06/15 06:56:47;;;;;;;9.52;4.13;;;;;;;16.74;66.39;101681.63;5064710;28;20044;-70
2022/06/15 06:59:14;;;;;;;12.20;5.68;;;;;;;16.77;65.94;101691.22;5072363;28;20459;-70
2022/06/15 07:01:42;;;;;;;13.27;6.00;;;;;;;16.82;65.52;101689.41;5077850;28;20044;-71
2022/06/15 07:04:08;;;;;;;13.63;6.00;;;;;;;16.89;66.06;101693.91;5092767;28;20031;-70
2022/06/15 07:06:34;;;;;;;10.95;5.57;;;;;;;17.03;65.79;101694.41;5092502;28;20055;-70
2022/06/15 07:08:59;;;;;;;9.25;5.50;;;;;;;17.07;65.36;101690.13;5092639;28;20063;-73
2022/06/15 07:11:25;;;;;;;11.43;5.00;;;;;;;17.12;63.54;101707.44;5079255;28;20036;-77
2022/06/15 07:13:50;;;;;;;11.65;5.32;;;;;;;17.24;65.00;101701.06;5054483;28;20024;-77
2022/06/15 07:16:18;;;;;;;15.07;5.70;;;;;;;17.25;63.75;101699.97;5071209;28;20025;-73
2022/06/15 07:18:45;;;;;;;10.20;5.25;;;;;;;17.33;63.42;101694.94;5072339;28;20108;-72
2022/06/15 07:21:13;;;;;;;12.32;5.25;;;;;;;17.39;64.12;101698.56;5072372;28;20032;-73
2022/06/15 07:23:40;;;;;;;10.85;5.25;;;;;;;17.46;65.16;101695.66;5072393;28;20195;-74
2022/06/15 07:26:10;;;;;;;12.20;5.57;;;;;;;17.47;65.44;101695.41;5061082;28;20029;-71
2022/06/15 07:28:36;;;;;;;10.85;5.65;;;;;;;17.53;64.35;101699.88;5051732;28;20064;-71
2022/06/15 07:31:01;;;;;;;11.02;5.43;;;;;;;17.58;63.35;101695.56;5055644;28;20110;-71
2022/06/15 07:33:26;;;;;;;9.45;5.07;;;;;;;17.63;61.51;101696.44;5055760;28;20147;-70
2022/06/15 07:35:52;;;;;;;12.68;5.20;;;;;;;17.71;61.69;101697.94;5056243;28;20119;-71
2022/06/15 07:38:19;;;;;;;15.27;4.72;;;;;;;17.80;62.65;101698.31;5055857;28;20025;-71
2022/06/15 07:40:45;;;;;;;9.05;4.65;;;;;;;17.87;61.91;101699.81;5056147;28;20399;-71
2022/06/15 07:43:11;;;;;;;8.90;4.85;;;;;;;17.94;61.55;101701.56;5056120;28;20032;-71
2022/06/15 07:45:37;;;;;;;9.25;4.60;;;;;;;17.99;61.24;101704.38;5055837;28;20160;-70
2022/06/15 07:50:47;;;;;;;10.73;4.38;;;;;;;18.13;60.38;101697.44;5056002;28;20056;-71
2022/06/15 07:53:13;;;;;;;11.80;4.78;;;;;;;18.20;59.97;101699.97;5055848;28;20460;-72
2022/06/15 07:55:42;;;;;;;9.38;4.57;;;;;;;18.28;60.16;101698.69;5055728;28;20064;-72
2022/06/15 07:58:09;;;;;;;10.93;4.43;;;;;;;18.31;60.44;101698.19;5055760;28;20084;-72
2022/06/15 08:00:37;;;;;;;7.95;4.38;;;;;;;18.42;60.75;101703.50;5052960;28;20029;-72
2022/06/15 08:03:04;;;;;;;10.75;5.28;;;;;;;18.47;59.50;101702.75;5055350;28;20068;-72
2022/06/15 08:05:35;;;;;;;9.98;4.70;;;;;;;18.47;58.79;101708.22;5055256;28;20077;-71
2022/06/15 08:08:02;;;;;;;8.60;4.88;;;;;;;18.57;57.98;101707.53;5055432;28;20024;-72
2022/06/15 08:10:27;;;;;;;13.38;5.03;;;;;;;18.63;57.53;101711.13;5055083;28;20035;-72
2022/06/15 08:12:54;;;;;;;13.60;4.80;;;;;;;18.65;58.11;101704.31;5055474;28;20017;-72
2022/06/15 08:15:20;;;;;;;9.68;5.10;;;;;;;18.68;58.22;101708.44;5055532;28;20033;-72
2022/06/15 08:17:56;;;;;;;7.95;4.57;;;;;;;18.72;58.87;101704.94;5055193;28;20041;-72
2022/06/15 08:20:27;;;;;;;11.82;4.85;;;;;;;18.79;58.09;101710.19;5055490;28;20384;-71
2022/06/15 08:22:57;;;;;;;9.02;4.30;;;;;;;18.90;58.05;101700.19;5067990;28;20099;-71
2022/06/15 08:25:26;;;;;;;8.60;4.32;;;;;;;18.93;57.09;101705.13;5055690;28;20041;-71
2022/06/15 08:27:52;;;;;;;13.52;4.82;;;;;;;18.96;55.49;101704.63;5074535;28;20036;-76
2022/06/15 08:30:18;;;;;;;11.43;4.03;;;;;;;19.03;55.70;101699.75;5072744;28;20024;-70
2022/06/15 08:32:44;;;;;;;10.38;4.53;;;;;;;19.05;56.60;101699.47;5074611;28;20471;-72
2022/06/15 08:35:10;;;;;;;8.77;3.83;;;;;;;19.11;55.71;101701.19;5074816;28;20051;-70
2022/06/15 08:37:36;;;;;;;8.98;3.88;;;;;;;19.17;54.78;101708.34;5074400;28;20471;-71
2022/06/15 08:40:02;;;;;;;8.20;4.43;;;;;;;19.18;53.87;101700.97;5056811;28;20025;-70
2022/06/15 08:42:46;;;;;;;12.93;4.60;;;;;;;19.18;55.51;101707.28;5060688;28;20533;-71
2022/06/15 08:45:45;;;;;;;8.88;5.35;;;;;;;19.24;55.30;101702.66;5055561;28;20079;-71
2022/06/15 08:48:41;;;;;;;10.73;3.90;;;;;;;19.29;55.41;101700.81;5070408;28;20526;-71
2022/06/15 08:51:20;;;;;;;16.73;4.32;;;;;;;19.37;54.70;101693.16;5061649;28;20440;-71
2022/06/15 08:54:03;;;;;;;11.75;3.92;;;;;;;19.42;54.23;101706.91;5074150;28;20490;-72
2022/06/15 08:56:43;;;;;;;8.73;3.90;;;;;;;19.42;55.19;101690.44;5074450;28;20559;-71
2022/06/15 08:59:33;;;;;;;12.93;4.07;;;;;;;19.53;54.86;101697.66;5074512;28;20495;-71
2022/06/15 09:02:08;;;;;;;16.55;4.20;;;;;;;19.63;54.16;101700.47;5080389;28;20294;-71
2022/06/15 09:04:46;;;;;;;13.35;4.60;;;;;;;19.68;54.19;101696.09;5084100;28;20029;-71
2022/06/15 09:07:42;;;;;;;10.55;4.57;;;;;;;19.70;53.68;101693.91;5074595;28;20094;-71
2022/06/15 09:10:34;;;;;;;11.75;3.90;;;;;;;19.77;54.24;101689.84;5063756;28;20032;-71
2022/06/15 09:13:25;;;;;;;13.45;4.60;;;;;;;19.83;54.08;101690.72;5059904;28;20029;-71
2022/06/15 09:16:17;;;;;;;9.77;3.67;;;;;;;19.91;52.06;101692.94;5065315;28;20074;-74
2022/06/15 09:18:48;;;;;;;11.32;3.70;;;;;;;20.01;49.86;101693.00;5062279;28;20102;-71
2022/06/15 09:21:23;;;;;;;14.88;4.05;;;;;;;20.20;51.35;101706.28;5070766;28;20040;-71
2022/06/15 09:24:00;;;;;;;10.55;4.30;;;;;;;20.16;51.57;101694.97;5065333;28;20039;-71
2022/06/15 09:26:29;;;;;;;10.85;4.10;;;;;;;20.28;51.81;101703.00;5073833;28;20103;-71
2022/06/15 09:29:02;;;;;;;13.23;4.50;;;;;;;20.26;51.34;101702.44;5054009;28;20078;-70
2022/06/15 09:31:35;;;;;;;11.45;3.97;;;;;;;20.19;51.91;101699.13;5053535;28;20045;-72
2022/06/15 09:34:04;;;;;;;14.40;4.20;;;;;;;20.27;52.50;101695.03;5061817;28;20028;-71
2022/06/15 09:36:46;;;;;;;15.10;4.70;;;;;;;20.33;52.50;101693.94;5073665;28;20071;-72
2022/06/15 09:39:11;;;;;;;14.15;4.03;;;;;;;20.38;50.13;101684.88;5067232;28;20060;-72
2022/06/15 09:41:59;;;;;;;10.00;3.40;;;;;;;20.45;52.02;101679.94;5054540;28;20068;-71
2022/06/15 09:44:46;;;;;;;10.57;3.63;;;;;;;20.58;51.55;101686.84;5064803;28;20036;-71
2022/06/15 09:47:42;;;;;;;10.52;3.70;;;;;;;20.62;50.47;101686.03;5065565;28;20055;-73
2022/06/15 09:50:29;;;;;;;10.25;4.00;;;;;;;20.68;51.40;101686.88;5060193;28;20033;-71
2022/06/15 09:53:23;;;;;;;11.40;4.28;;;;;;;20.74;50.10;101682.22;5073102;28;20494;-72
2022/06/15 09:55:53;;;;;;;9.80;3.70;;;;;;;20.80;49.90;101686.63;5059900;28;20026;-72
2022/06/15 09:58:22;;;;;;;13.23;4.20;;;;;;;20.82;50.13;101685.28;5048029;28;20476;-72
2022/06/15 10:00:49;;;;;;;13.02;4.15;;;;;;;20.90;50.15;101686.66;5065071;28;20040;-72
2022/06/15 10:03:30;;;;;;;9.90;3.90;;;;;;;20.95;50.74;101678.38;5091799;28;20032;-72
2022/06/15 10:06:13;;;;;;;12.85;4.38;;;;;;;20.98;50.35;101677.00;5055504;28;20086;-73
2022/06/15 10:08:38;;;;;;;13.20;4.05;;;;;;;21.03;49.39;101682.50;5053218;28;20039;-73
2022/06/15 10:11:11;;;;;;;9.05;3.65;;;;;;;21.10;48.01;101685.00;5053412;28;20045;-72
2022/06/15 10:13:38;;;;;;;15.73;4.20;;;;;;;21.13;48.70;101684.44;5053084;28;20515;-72
2022/06/15 10:16:24;;;;;;;13.30;4.30;;;;;;;21.12;48.66;101686.38;5067241;28;20460;-72
2022/06/15 10:18:53;;;;;;;10.68;3.80;;;;;;;21.17;48.29;101691.06;5072902;28;20036;-73
2022/06/15 10:21:22;;;;;;;8.00;3.40;;;;;;;21.25;48.73;101688.53;5053862;28;20029;-74
2022/06/15 10:23:59;;;;;;;14.23;4.45;;;;;;;21.28;48.71;101686.38;5055713;28;20059;-73
2022/06/15 10:26:42;;;;;;;11.82;4.00;;;;;;;21.33;48.50;101687.19;5067335;28;20029;-72
2022/06/15 10:29:18;;;;;;;10.63;4.30;;;;;;;21.30;48.90;101679.44;5053088;28;20483;-73
2022/06/15 10:32:13;;;;;;;8.43;3.95;;;;;;;21.42;48.91;101676.41;5063869;28;20033;-73
2022/06/15 10:34:42;;;;;;;8.80;3.60;;;;;;;21.51;47.16;101684.97;5052758;28;20027;-72
2022/06/15 10:37:15;;;;;;;10.90;4.10;;;;;;;21.55;47.23;101686.88;5052717;28;20032;-72
2022/06/15 10:39:48;;;;;;;9.93;3.78;;;;;;;21.67;48.92;101683.84;5057059;28;20024;-72
2022/06/15 10:42:24;;;;;;;14.88;4.25;;;;;;;21.71;48.59;101684.94;5072854;28;20037;-72
2022/06/15 10:45:01;;;;;;;11.73;3.85;;;;;;;21.66;46.72;101681.34;5070414;28;20021;-73
2022/06/15 10:47:38;;;;;;;7.53;3.85;;;;;;;21.64;45.95;101678.88;5067261;28;20032;-72
2022/06/15 10:50:15;;;;;;;11.75;3.85;;;;;;;21.81;48.29;101684.06;5067220;28;20033;-72
2022/06/15 10:52:48;;;;;;;11.88;3.53;;;;;;;21.88;47.42;101672.75;5066387;28;20029;-72
2022/06/15 11:04:20;;;;;;;9.52;4.07;;;;;;;22.19;46.93;101658.81;5075454;28;20068;-72
2022/06/15 11:06:50;;;;;;;9.93;3.78;;;;;;;22.36;46.62;101661.22;5054860;28;20033;-72
2022/06/15 11:09:29;;;;;;;9.23;3.70;;;;;;;22.34;46.09;101646.91;5056743;28;20491;-72
2022/06/15 11:11:57;;;;;;;10.95;3.60;;;;;;;22.44;45.26;101649.59;5072212;28;20408;-72
2022/06/15 11:14:42;;;;;;;9.20;3.78;;;;;;;22.55;47.84;101644.84;5072617;28;20082;-73
2022/06/15 11:20:19;;;;;;;8.90;3.33;;;;;;;22.65;45.64;101653.03;5072507;28;20517;-73
2022/06/15 11:22:47;;;;;;;;;;;;;;;22.76;46.43;101653.78;5051220;28;20036;-73
2022/06/15 11:25:17;;;;;;;9.05;3.47;;;;;;;22.86;45.00;101655.63;5052260;28;19913;-73
2022/06/15 11:27:47;;;;;;;8.35;3.80;;;;;;;22.74;43.66;101656.03;5052022;28;20460;-73
2022/06/15 11:30:29;;;;;;;12.82;3.42;;;;;;;22.84;44.88;101655.91;5063113;28;20032;-73
2022/06/15 11:33:00;;;;;;;10.00;4.00;;;;;;;22.92;43.99;101652.56;5070094;28;20040;-73
2022/06/15 11:35:34;;;;;;;12.15;3.72;;;;;;;22.98;43.98;101656.91;5052113;28;20037;-73
2022/06/15 11:38:20;;;;;;;8.50;3.47;;;;;;;23.02;44.77;101657.16;5060577;28;20456;-73
2022/06/15 11:40:56;;;;;;;8.40;3.40;;;;;;;23.05;44.80;101645.53;5071575;28;20039;-73
2022/06/15 11:43:27;;;;;;;11.57;3.97;;;;;;;23.23;45.92;101655.03;5072192;28;20029;-73
2022/06/15 11:46:02;;;;;;;11.25;3.72;;;;;;;23.33;45.37;101662.41;5056757;28;20041;-73
2022/06/15 11:48:36;;;;;;;9.95;3.67;;;;;;;23.35;45.02;101651.91;5056013;28;20029;-73
2022/06/15 11:51:15;;;;;;;12.48;4.18;;;;;;;23.38;44.94;101654.06;5068728;28;20379;-73
2022/06/15 11:53:55;;;;;;;8.00;3.45;;;;;;;23.56;45.90;101657.22;5066049;28;20032;-73
2022/06/15 11:56:23;;;;;;;9.18;3.70;;;;;;;23.58;43.05;101650.25;5071651;28;20076;-73
2022/06/15 11:59:08;;;;;;;8.95;3.50;;;;;;;23.61;43.76;101640.56;5063694;28;20499;-73